Time,TemperatureF,DewpointF,PressureIn,WindDirection,WindDirectionDegrees,WindSpeedMPH,WindSpeedGustMPH,Humidity,HourlyPrecipIn,Conditions,Clouds,dailyrainin,SoftwareType,DateUTC
2013-11-13 00:00:00,25.9,6.4,28.45,NNE,22,2.0,6.0,43,0.00,CLR,,0.00,WeatherDisplay:10.37,2013-11-13 05:00:00,
2013-11-13 00:10:00,26.1,6.6,28.45,NNE,22,2.0,6.0,43,0.00,CLR,,0.00,WeatherDisplay:10.37,2013-11-13 05:10:00,
2013-11-13 00:20:00,26.1,6.6,28.45,NNE,22,2.0,6.0,43,0.00,CLR,,0.00,WeatherDisplay:10.37,2013-11-13 05:20:00,
2013-11-13 00:30:00,26.1,6.1,28.45,NNE,22,2.0,6.0,42,0.00,CLR,,0.00,WeatherDisplay:10.37,2013-11-13 05:30:00,
2013-11-13 00:40:00,26.1,6.1,28.45,NNE,22,2.0,6.0,42,0.00,CLR,,0.00,WeatherDisplay:10.37,2013-11-13 05:40:00,
2013-11-13 00:50:00,26.2,6.7,28.45,NNE,22,2.0,6.0,43,0.00,CLR,,0.00,WeatherDisplay:10.37,2013-11-13 05:50:00,
2013-11-13 01:00:00,26.1,7.1,28.45,NNE,22,2.0,6.0,44,0.00,CLR,,0.00,WeatherDisplay:10.37,2013-11-13 06:00:00,
2013-11-13 01:10:00,26.1,7.1,28.45,NNE,22,2.0,6.0,44,0.00,CLR,,0.00,WeatherDisplay:10.37,2013-11-13 06:10:00,
2013-11-13 01:20:00,26.1,6.6,28.45,NNE,22,2.0,6.0,43,0.00,CLR,,0.00,WeatherDisplay:10.37,2013-11-13 06:20:00,
2013-11-13 01:30:00,26.1,6.6,28.45,NNE,22,2.0,6.0,43,0.00,CLR,,0.00,WeatherDisplay:10.37,2013-11-13 06:30:00,
2013-11-13 01:40:00,26.1,6.1,28.45,NNE,22,2.0,6.0,42,0.00,CLR,,0.00,WeatherDisplay:10.37,2013-11-13 06:40:00,
2013-11-13 01:50:00,25.9,6.4,28.45,NNE,22,2.0,6.0,43,0.00,CLR,,0.00,WeatherDisplay:10.37,2013-11-13 06:50:00,
2013-11-13 02:00:00,25.9,6.4,28.45,NNE,22,2.0,6.0,43,0.00,CLR,,0.00,WeatherDisplay:10.37,2013-11-13 07:00:00,
2013-11-13 02:10:00,25.8,5.8,28.45,NNE,22,2.0,6.0,42,0.00,CLR,,0.00,WeatherDisplay:10.37,2013-11-13 07:10:00,
2013-11-13 02:20:00,25.7,5.7,28.45,NNE,22,2.0,6.0,42,0.00,CLR,,0.00,WeatherDisplay:10.37,2013-11-13 07:20:00,
2013-11-13 02:30:00,25.5,5.6,28.42,NNE,22,2.0,6.0,42,0.00,CLR,,0.00,WeatherDisplay:10.37,2013-11-13 07:30:00,
2013-11-13 02:40:00,25.5,5.6,28.42,NNE,22,2.0,6.0,42,0.00,CLR,,0.00,WeatherDisplay:10.37,2013-11-13 07:40:00,
2013-11-13 02:50:00,25.3,5.4,28.42,NNE,22,2.0,6.0,42,0.00,CLR,,0.00,WeatherDisplay:10.37,2013-11-13 07:50:00,
2013-11-13 03:00:00,25.4,5.9,28.42,NNE,22,2.0,6.0,43,0.00,CLR,,0.00,WeatherDisplay:10.37,2013-11-13 08:00:00,
2013-11-13 03:10:00,25.3,5.9,28.42,NNE,22,2.0,6.0,43,0.00,CLR,,0.00,WeatherDisplay:10.37,2013-11-13 08:10:00,
2013-11-13 03:20:00,25.3,5.9,28.42,NNE,22,2.0,6.0,43,0.00,CLR,,0.00,WeatherDisplay:10.37,2013-11-13 08:20:00,
2013-11-13 03:30:00,25.0,5.6,28.42,NNE,22,2.0,6.0,43,0.00,CLR,,0.00,WeatherDisplay:10.37,2013-11-13 08:30:00,
2013-11-13 03:40:00,24.4,5.6,28.42,NNE,22,2.0,6.0,44,0.00,CLR,,0.00,WeatherDisplay:10.37,2013-11-13 08:40:00,
2013-11-13 03:50:00,24.1,5.3,28.42,NNE,22,2.0,6.0,44,0.00,CLR,,0.00,WeatherDisplay:10.37,2013-11-13 08:50:00,
2013-11-13 04:00:00,23.7,4.9,28.42,NNE,22,2.0,6.0,44,0.00,CLR,,0.00,WeatherDisplay:10.37,2013-11-13 09:00:00,
2013-11-13 04:10:00,23.5,5.3,28.42,NNE,22,2.0,6.0,45,0.00,CLR,,0.00,WeatherDisplay:10.37,2013-11-13 09:10:00,
2013-11-13 04:20:00,23.4,5.6,28.42,NNE,22,2.0,6.0,46,0.00,CLR,,0.00,WeatherDisplay:10.37,2013-11-13 09:20:00,
2013-11-13 04:30:00,23.2,5.4,28.42,NNE,22,2.0,6.0,46,0.00,CLR,,0.00,WeatherDisplay:10.37,2013-11-13 09:30:00,
2013-11-13 04:40:00,22.8,5.1,28.42,NNE,22,2.0,6.0,46,0.00,CLR,,0.00,WeatherDisplay:10.37,2013-11-13 09:40:00,
2013-11-13 04:50:00,22.5,4.3,28.42,NNE,22,2.0,6.0,45,0.00,CLR,,0.00,WeatherDisplay:10.37,2013-11-13 09:50:00,
2013-11-13 05:00:00,22.1,4.9,28.42,NNE,22,2.0,6.0,47,0.00,CLR,,0.00,WeatherDisplay:10.37,2013-11-13 10:00:00,
2013-11-13 05:10:00,21.9,4.7,28.42,NNE,22,2.0,6.0,47,0.00,CLR,,0.00,WeatherDisplay:10.37,2013-11-13 10:10:00,
2013-11-13 05:20:00,21.7,4.6,28.42,NNE,22,2.0,6.0,47,0.00,CLR,,0.00,WeatherDisplay:10.37,2013-11-13 10:20:00,
2013-11-13 05:30:00,21.6,4.9,28.42,NNE,22,2.0,6.0,48,0.00,CLR,,0.00,WeatherDisplay:10.37,2013-11-13 10:30:00,
2013-11-13 05:40:00,21.4,4.7,28.42,NNE,22,2.0,6.0,48,0.00,CLR,,0.00,WeatherDisplay:10.37,2013-11-13 10:40:00,
2013-11-13 05:50:00,21.2,5.0,28.42,NNE,22,2.0,6.0,49,0.00,CLR,,0.00,WeatherDisplay:10.37,2013-11-13 10:50:00,
2013-11-13 06:00:00,21.0,4.4,28.42,NNE,22,2.0,6.0,48,0.00,CLR,,0.00,WeatherDisplay:10.37,2013-11-13 11:00:00,
2013-11-13 06:10:00,20.9,5.6,28.42,NNE,22,2.0,6.0,51,0.00,CLR,,0.00,WeatherDisplay:10.37,2013-11-13 11:10:00,
2013-11-13 06:20:00,21.0,5.3,28.42,NNE,22,2.0,6.0,50,0.00,CLR,,0.00,WeatherDisplay:10.37,2013-11-13 11:20:00,
2013-11-13 06:30:00,20.7,5.4,28.42,NNE,22,2.0,6.0,51,0.00,CLR,,0.00,WeatherDisplay:10.37,2013-11-13 11:30:00,
2013-11-13 06:40:00,20.5,4.8,28.42,NNE,22,2.0,6.0,50,0.00,CLR,,0.00,WeatherDisplay:10.37,2013-11-13 11:40:00,
2013-11-13 06:50:00,20.7,5.8,28.42,NNE,22,2.0,6.0,52,0.00,CLR,,0.00,WeatherDisplay:10.37,2013-11-13 11:50:00,
2013-11-13 07:00:00,21.0,7.0,28.42,NNE,22,2.0,6.0,54,0.00,CLR,,0.00,WeatherDisplay:10.37,2013-11-13 12:00:00,
2013-11-13 07:10:00,21.2,7.1,28.42,NNE,22,2.0,6.0,54,0.00,CLR,,0.00,WeatherDisplay:10.37,2013-11-13 12:10:00,
2013-11-13 07:20:00,21.6,7.0,28.42,NNE,22,2.0,6.0,53,0.00,CLR,,0.00,WeatherDisplay:10.37,2013-11-13 12:20:00,
2013-11-13 07:30:00,21.6,7.0,28.45,NNE,22,2.0,6.0,53,0.00,CLR,,0.00,WeatherDisplay:10.37,2013-11-13 12:30:00,
2013-11-13 07:40:00,21.7,7.2,28.45,NNE,22,2.0,6.0,53,0.00,CLR,,0.00,WeatherDisplay:10.37,2013-11-13 12:40:00,
2013-11-13 07:50:00,22.1,7.6,28.45,NNE,22,2.0,6.0,53,0.00,CLR,,0.00,WeatherDisplay:10.37,2013-11-13 12:50:00,
2013-11-13 08:00:00,22.6,8.5,28.45,NNE,22,2.0,6.0,54,0.00,CLR,,0.00,WeatherDisplay:10.37,2013-11-13 13:00:00,
2013-11-13 08:10:00,23.2,9.0,28.45,NNE,22,2.0,6.0,54,0.00,CLR,,0.00,WeatherDisplay:10.37,2013-11-13 13:10:00,
2013-11-13 08:20:00,23.7,7.8,28.45,NNE,22,2.0,6.0,50,0.00,CLR,,0.00,WeatherDisplay:10.37,2013-11-13 13:20:00,
2013-11-13 08:30:00,24.4,7.0,28.45,NNE,22,2.0,6.0,47,0.00,CLR,,0.00,WeatherDisplay:10.37,2013-11-13 13:30:00,
2013-11-13 08:40:00,25.1,7.2,28.45,NNE,22,2.0,6.0,46,0.00,CLR,,0.00,WeatherDisplay:10.37,2013-11-13 13:40:00,
2013-11-13 08:50:00,25.3,6.9,28.45,NNE,22,2.0,6.0,45,0.00,CLR,,0.00,WeatherDisplay:10.37,2013-11-13 13:50:00,
2013-11-13 09:00:00,25.9,6.9,28.45,NNE,22,2.0,6.0,44,0.00,CLR,,0.00,WeatherDisplay:10.37,2013-11-13 14:00:00,
2013-11-13 09:10:00,26.4,7.4,28.45,NNE,22,2.0,6.0,44,0.00,CLR,,0.00,WeatherDisplay:10.37,2013-11-13 14:10:00,
2013-11-13 09:20:00,26.1,6.6,28.45,NNE,22,2.0,6.0,43,0.00,CLR,,0.00,WeatherDisplay:10.37,2013-11-13 14:20:00,
2013-11-13 09:30:00,26.4,6.9,28.45,NNE,22,2.0,6.0,43,0.00,CLR,,0.00,WeatherDisplay:10.37,2013-11-13 14:30:00,
2013-11-13 09:40:00,26.6,7.1,28.45,NNE,22,2.0,6.0,43,0.00,CLR,,0.00,WeatherDisplay:10.37,2013-11-13 14:40:00,
2013-11-13 09:50:00,26.9,6.8,28.45,NNE,22,2.0,6.0,42,0.00,CLR,,0.00,WeatherDisplay:10.37,2013-11-13 14:50:00,
2013-11-13 10:00:00,27.0,6.9,28.48,NNE,22,2.0,6.0,42,0.00,CLR,,0.00,WeatherDisplay:10.37,2013-11-13 15:00:00,
2013-11-13 10:10:00,27.7,6.5,28.48,NNE,22,2.0,6.0,40,0.00,CLR,,0.00,WeatherDisplay:10.37,2013-11-13 15:10:00,
2013-11-13 10:20:00,28.2,7.5,28.48,NNE,22,2.0,6.0,41,0.00,CLR,,0.00,WeatherDisplay:10.37,2013-11-13 15:20:00,
2013-11-13 10:30:00,28.5,6.1,28.51,NNE,22,2.0,6.0,38,0.00,CLR,,0.00,WeatherDisplay:10.37,2013-11-13 15:30:00,
2013-11-13 10:40:00,28.9,5.9,28.51,NNE,22,2.0,6.0,37,0.00,CLR,,0.00,WeatherDisplay:10.37,2013-11-13 15:40:00,
2013-11-13 10:50:00,29.7,7.1,28.54,NNE,22,2.0,6.0,38,0.00,CLR,,0.00,WeatherDisplay:10.37,2013-11-13 15:50:00,
2013-11-13 11:00:00,29.9,5.6,28.54,NNE,22,2.0,6.0,35,0.00,CLR,,0.00,WeatherDisplay:10.37,2013-11-13 16:00:00,
2013-11-13 11:10:00,29.7,4.7,28.54,NNE,22,2.0,6.0,34,0.00,CLR,,0.00,WeatherDisplay:10.37,2013-11-13 16:10:00,
2013-11-13 11:20:00,29.7,4.7,28.54,NNE,22,2.0,6.0,34,0.00,CLR,,0.00,WeatherDisplay:10.37,2013-11-13 16:20:00,
2013-11-13 11:30:00,30.3,5.2,28.54,NNE,22,2.0,6.0,34,0.00,CLR,,0.00,WeatherDisplay:10.37,2013-11-13 16:30:00,
2013-11-13 11:40:00,31.1,6.0,28.54,NNE,22,2.0,6.0,34,0.00,CLR,,0.00,WeatherDisplay:10.37,2013-11-13 16:40:00,
2013-11-13 11:50:00,31.5,5.6,28.54,NNE,22,2.0,6.0,33,0.00,CLR,,0.00,WeatherDisplay:10.37,2013-11-13 16:50:00,
2013-11-13 12:00:00,32.6,6.6,28.54,NNE,22,2.0,6.0,33,0.00,CLR,,0.00,WeatherDisplay:10.37,2013-11-13 17:00:00,
2013-11-13 12:10:00,33.7,7.0,28.54,NNE,22,2.0,6.0,32,0.00,CLR,,0.00,WeatherDisplay:10.37,2013-11-13 17:10:00,
2013-11-13 12:20:00,34.3,6.8,28.54,NNE,22,2.0,6.0,31,0.00,CLR,,0.00,WeatherDisplay:10.37,2013-11-13 17:20:00,
2013-11-13 12:30:00,34.5,6.2,28.54,NNE,22,2.0,6.0,30,0.00,CLR,,0.00,WeatherDisplay:10.37,2013-11-13 17:30:00,
2013-11-13 12:40:00,34.5,6.2,28.54,NNE,22,2.0,6.0,30,0.00,CLR,,0.00,WeatherDisplay:10.37,2013-11-13 17:40:00,
2013-11-13 12:50:00,34.9,6.6,28.54,NNE,22,2.0,6.0,30,0.00,CLR,,0.00,WeatherDisplay:10.37,2013-11-13 17:50:00,
2013-11-13 13:00:00,35.4,7.0,28.54,NNE,22,2.0,6.0,30,0.00,CLR,,0.00,WeatherDisplay:10.37,2013-11-13 18:00:00,
2013-11-13 13:10:00,36.0,7.5,28.54,NNE,22,2.0,6.0,30,0.00,CLR,,0.00,WeatherDisplay:10.37,2013-11-13 18:10:00,
2013-11-13 13:20:00,36.5,7.2,28.54,NNE,22,2.0,6.0,29,0.00,CLR,,0.00,WeatherDisplay:10.37,2013-11-13 18:20:00,
2013-11-13 13:30:00,36.7,7.4,28.54,NNE,22,2.0,6.0,29,0.00,CLR,,0.00,WeatherDisplay:10.37,2013-11-13 18:30:00,
2013-11-13 13:40:00,37.0,6.1,28.54,NNE,22,2.0,6.0,27,0.00,CLR,,0.00,WeatherDisplay:10.37,2013-11-13 18:40:00,
2013-11-13 13:50:00,37.7,5.9,28.57,NNE,22,2.0,6.0,26,0.00,CLR,,0.00,WeatherDisplay:10.37,2013-11-13 18:50:00,
2013-11-13 14:00:00,39.2,7.1,28.54,NNE,22,2.0,6.0,26,0.00,CLR,,0.00,WeatherDisplay:10.37,2013-11-13 19:00:00,
2013-11-13 14:10:00,38.7,4.9,28.54,NNE,22,2.0,6.0,24,0.00,CLR,,0.00,WeatherDisplay:10.37,2013-11-13 19:10:00,
2013-11-13 14:20:00,38.8,5.1,28.54,NNE,22,2.0,6.0,24,0.00,CLR,,0.00,WeatherDisplay:10.37,2013-11-13 19:20:00,
2013-11-13 14:30:00,39.2,4.4,28.54,NNE,22,2.0,6.0,23,0.00,CLR,,0.00,WeatherDisplay:10.37,2013-11-13 19:30:00,
2013-11-13 14:40:00,38.6,4.8,28.54,NNE,22,2.0,6.0,24,0.00,CLR,,0.00,WeatherDisplay:10.37,2013-11-13 19:40:00,
2013-11-13 14:50:00,39.4,4.6,28.54,NNE,22,2.0,6.0,23,0.00,CLR,,0.00,WeatherDisplay:10.37,2013-11-13 19:50:00,
2013-11-13 15:00:00,40.4,5.5,28.51,NNE,22,2.0,6.0,23,0.00,CLR,,0.00,WeatherDisplay:10.37,2013-11-13 20:00:00,
2013-11-13 15:10:00,41.3,6.2,28.51,NNE,22,2.0,6.0,23,0.00,CLR,,0.00,WeatherDisplay:10.37,2013-11-13 20:10:00,
2013-11-13 15:20:00,41.6,5.5,28.51,NNE,22,2.0,6.0,22,0.00,CLR,,0.00,WeatherDisplay:10.37,2013-11-13 20:20:00,
2013-11-13 15:30:00,41.7,4.6,28.51,NNE,22,2.0,6.0,21,0.00,CLR,,0.00,WeatherDisplay:10.37,2013-11-13 20:30:00,
2013-11-13 15:40:00,41.7,4.6,28.51,NNE,22,2.0,6.0,21,0.00,CLR,,0.00,WeatherDisplay:10.37,2013-11-13 20:40:00,
2013-11-13 15:50:00,41.7,4.6,28.51,NNE,22,2.0,6.0,21,0.00,CLR,,0.00,WeatherDisplay:10.37,2013-11-13 20:50:00,
2013-11-13 16:00:00,41.7,4.6,28.51,NNE,22,2.0,6.0,21,0.00,CLR,,0.00,WeatherDisplay:10.37,2013-11-13 21:00:00,
2013-11-13 16:10:00,41.7,4.6,28.51,NNE,22,2.0,6.0,21,0.00,CLR,,0.00,WeatherDisplay:10.37,2013-11-13 21:10:00,
2013-11-13 16:20:00,41.7,4.6,28.51,NNE,22,2.0,6.0,21,0.00,CLR,,0.00,WeatherDisplay:10.37,2013-11-13 21:20:00,
2013-11-13 16:30:00,41.7,4.6,28.51,NNE,22,2.0,6.0,21,0.00,CLR,,0.00,WeatherDisplay:10.37,2013-11-13 21:30:00,
2013-11-13 16:40:00,41.7,4.6,28.51,NNE,22,2.0,6.0,21,0.00,CLR,,0.00,WeatherDisplay:10.37,2013-11-13 21:40:00,
2013-11-13 16:50:00,41.7,4.6,28.51,NNE,22,2.0,6.0,21,0.00,CLR,,0.00,WeatherDisplay:10.37,2013-11-13 21:50:00,
2013-11-13 17:00:00,41.7,4.6,28.51,NNE,22,2.0,6.0,21,0.00,CLR,,0.00,WeatherDisplay:10.37,2013-11-13 22:00:00,
2013-11-13 17:10:00,41.7,4.6,28.51,NNE,22,2.0,6.0,21,0.00,CLR,,0.00,WeatherDisplay:10.37,2013-11-13 22:10:00,
2013-11-13 17:20:00,41.7,4.6,28.51,NNE,22,2.0,6.0,21,0.00,CLR,,0.00,WeatherDisplay:10.37,2013-11-13 22:20:00,
2013-11-13 17:30:00,41.7,4.6,28.51,NNE,22,2.0,6.0,21,0.00,CLR,,0.00,WeatherDisplay:10.37,2013-11-13 22:30:00,
2013-11-13 17:40:00,41.7,4.6,28.51,NNE,22,2.0,6.0,21,0.00,CLR,,0.00,WeatherDisplay:10.37,2013-11-13 22:40:00,
2013-11-13 17:50:00,41.7,4.6,28.51,NNE,22,2.0,6.0,21,0.00,CLR,,0.00,WeatherDisplay:10.37,2013-11-13 22:50:00,
2013-11-13 18:00:00,41.7,4.6,28.51,NNE,22,2.0,6.0,21,0.00,CLR,,0.00,WeatherDisplay:10.37,2013-11-13 23:00:00,
2013-11-13 18:10:00,41.7,4.6,28.51,NNE,22,2.0,6.0,21,0.00,CLR,,0.00,WeatherDisplay:10.37,2013-11-13 23:10:00,
2013-11-13 18:20:00,41.7,4.6,28.51,NNE,22,2.0,6.0,21,0.00,CLR,,0.00,WeatherDisplay:10.37,2013-11-13 23:20:00,
2013-11-13 18:30:00,41.7,4.6,28.51,NNE,22,2.0,6.0,21,0.00,CLR,,0.00,WeatherDisplay:10.37,2013-11-13 23:30:00,
2013-11-13 18:40:00,41.7,4.6,28.51,NNE,22,2.0,6.0,21,0.00,CLR,,0.00,WeatherDisplay:10.37,2013-11-13 23:40:00,
2013-11-13 18:50:00,41.7,4.6,28.51,NNE,22,2.0,6.0,21,0.00,CLR,,0.00,WeatherDisplay:10.37,2013-11-13 23:50:00,
2013-11-13 19:00:00,41.7,4.6,28.51,NNE,22,2.0,6.0,21,0.00,CLR,,0.00,WeatherDisplay:10.37,2013-11-14 00:00:00,
2013-11-13 19:10:00,41.7,4.6,28.51,NNE,22,2.0,6.0,21,0.00,CLR,,0.00,WeatherDisplay:10.37,2013-11-14 00:10:00,
2013-11-13 19:20:00,41.7,4.6,28.51,NNE,22,2.0,6.0,21,0.00,CLR,,0.00,WeatherDisplay:10.37,2013-11-14 00:20:00,
2013-11-13 19:30:00,41.7,4.6,28.51,NNE,22,2.0,6.0,21,0.00,CLR,,0.00,WeatherDisplay:10.37,2013-11-14 00:30:00,
2013-11-13 19:40:00,41.7,4.6,28.51,NNE,22,2.0,6.0,21,0.00,CLR,,0.00,WeatherDisplay:10.37,2013-11-14 00:40:00,
2013-11-13 19:50:00,41.7,4.6,28.51,NNE,22,2.0,6.0,21,0.00,CLR,,0.00,WeatherDisplay:10.37,2013-11-14 00:50:00,
2013-11-13 20:00:00,41.7,4.6,28.51,NNE,22,2.0,6.0,21,0.00,CLR,,0.00,WeatherDisplay:10.37,2013-11-14 01:00:00,
2013-11-13 20:10:00,41.7,4.6,28.51,NNE,22,2.0,6.0,21,0.00,CLR,,0.00,WeatherDisplay:10.37,2013-11-14 01:10:00,
2013-11-13 20:20:00,41.7,4.6,28.51,NNE,22,2.0,6.0,21,0.00,CLR,,0.00,WeatherDisplay:10.37,2013-11-14 01:20:00,
2013-11-13 20:30:00,41.7,4.6,28.51,NNE,22,2.0,6.0,21,0.00,CLR,,0.00,WeatherDisplay:10.37,2013-11-14 01:30:00,
2013-11-13 20:40:00,41.7,4.6,28.51,NNE,22,2.0,6.0,21,0.00,CLR,,0.00,WeatherDisplay:10.37,2013-11-14 01:40:00,
2013-11-13 20:50:00,41.7,4.6,28.51,NNE,22,2.0,6.0,21,0.00,CLR,,0.00,WeatherDisplay:10.37,2013-11-14 01:50:00,
2013-11-13 21:00:00,41.7,4.6,28.51,NNE,22,2.0,6.0,21,0.00,CLR,,0.00,WeatherDisplay:10.37,2013-11-14 02:00:00,
2013-11-13 21:10:00,41.7,4.6,28.51,NNE,22,2.0,6.0,21,0.00,CLR,,0.00,WeatherDisplay:10.37,2013-11-14 02:10:00,
2013-11-13 21:20:00,41.7,4.6,28.51,NNE,22,2.0,6.0,21,0.00,CLR,,0.00,WeatherDisplay:10.37,2013-11-14 02:20:00,
2013-11-13 21:30:00,41.7,4.6,28.51,NNE,22,2.0,6.0,21,0.00,CLR,,0.00,WeatherDisplay:10.37,2013-11-14 02:30:00,
2013-11-13 21:40:00,41.7,4.6,28.51,NNE,22,2.0,6.0,21,0.00,CLR,,0.00,WeatherDisplay:10.37,2013-11-14 02:40:00,
2013-11-13 21:50:00,41.7,4.6,28.51,NNE,22,2.0,6.0,21,0.00,CLR,,0.00,WeatherDisplay:10.37,2013-11-14 02:50:00,
2013-11-13 22:00:00,41.7,4.6,28.51,NNE,22,2.0,6.0,21,0.00,CLR,,0.00,WeatherDisplay:10.37,2013-11-14 03:00:00,
2013-11-13 22:10:00,41.7,4.6,28.51,NNE,22,2.0,6.0,21,0.00,CLR,,0.00,WeatherDisplay:10.37,2013-11-14 03:10:00,
2013-11-13 22:20:00,41.7,4.6,28.51,NNE,22,2.0,6.0,21,0.00,CLR,,0.00,WeatherDisplay:10.37,2013-11-14 03:20:00,
2013-11-13 22:30:00,41.7,4.6,28.51,NNE,22,2.0,6.0,21,0.00,CLR,,0.00,WeatherDisplay:10.37,2013-11-14 03:30:00,
2013-11-13 22:40:00,41.7,4.6,28.51,NNE,22,2.0,6.0,21,0.00,CLR,,0.00,WeatherDisplay:10.37,2013-11-14 03:40:00,
2013-11-13 22:50:00,41.7,4.6,28.51,NNE,22,2.0,6.0,21,0.00,CLR,,0.00,WeatherDisplay:10.37,2013-11-14 03:50:00,
2013-11-13 23:00:00,41.7,4.6,28.51,NNE,22,2.0,6.0,21,0.00,CLR,,0.00,WeatherDisplay:10.37,2013-11-14 04:00:00,
2013-11-13 23:10:00,41.7,4.6,28.51,NNE,22,2.0,6.0,21,0.00,CLR,,0.00,WeatherDisplay:10.37,2013-11-14 04:10:00,
2013-11-13 23:20:00,41.7,4.6,28.51,NNE,22,2.0,6.0,21,0.00,CLR,,0.00,WeatherDisplay:10.37,2013-11-14 04:20:00,
2013-11-13 23:30:00,41.7,4.6,28.51,NNE,22,2.0,6.0,21,0.00,CLR,,0.00,WeatherDisplay:10.37,2013-11-14 04:30:00,
2013-11-13 23:40:00,41.7,4.6,28.51,NNE,22,2.0,6.0,21,0.00,CLR,,0.00,WeatherDisplay:10.37,2013-11-14 04:40:00,
2013-11-13 23:50:00,41.7,4.6,28.51,NNE,22,2.0,6.0,21,0.00,CLR,,0.00,WeatherDisplay:10.37,2013-11-14 04:50:00,